Wednesday, April 17, 2019 at 6:30 a.m

AVIATION AREA FORECAST

SIGNIFICANT FEATURE… An induced Trough across Jamaica.

Comment….... The Trough gradually weakens today. Thereafter, a High Pressure Ridge is expected to build across the island and remains through to the weekend.


24-HOUR FORECAST
This Morning… Partly cloudy with possible showers mainly across eastern parishes.

This Afternoon… Showers across sections of most parishes, otherwise partly cloudy.

Tonight… Partly cloudy.


CLOUDS GENERALLY ACROSS THE ISLAND:
This Morning.... FEW022 SCT034
This Afternoon... SCT020 SCT033

WINDS AND TEMPERATURES

Flight 20N 80W 20N 75W
Levels WIND/TEMP WIND/TEMP
450 28039KT/-65 29044KT/-64
390 28050KT/-53 29058KT/-53
340 28046KT/-41 29050KT/-42
300 28023KT/-32 30033KT/-33
240 36012KT/-16 35015KT/-17
180 10006KT/-03 05010KT/-04
100 11010KT/09 06010KT/09
50 08017KT/17 07006KT/17

Flight 15N 80W 15N 75W
Levels WIND/TEMP WIND/TEMP
450 28019KT/-67 28031KT/-67
390 26025KT/-52 28033KT/-52
340 27025KT/-40 30029KT/-39
300 30019KT/-29 31025KT/-29
240 29002KT/-15 35008KT/-15
180 09014KT/-02 06014KT/-02
100 10017KT/11 07015KT/11
50 10021KT/17 08023KT/17

AERODROME FORECAST
TAF
MKJP 171115Z 1712/1812 34005KT 9999 FEW022 
  BECMG 1714/1716 14012KT 
  PROB30 
  TEMPO 1717/1724 SHRA SCT020 SCT032 
  BECMG 1802/1804 34004KT=

TAF
MKJS 171115Z 1712/1812 VRB03KT 9999 FEW022 
  BECMG 1714/1716 06014KT 
  PROB40 
  TEMPO 1717/1724 SHRA BKN018 
  BECMG 1802/1804 VRB04KT=

CAP